KPBF/PBF METAR and TAF weather

Enter ICAO airport designator
Station Type Date Time Source
KPBF METAR 2021/03/07 07:53 UTC NOAA

KPBF 070753Z AUTO 00000KT 10SM CLR A3036 RMK AO2 SLPNO $


Station Type Date Time Source
KPBF Decoded METAR 2021/03/07 07:53 UTC NOAA

PINE BLUFF GRIDER FIELD, AR, United States (KPBF) 34-11N 091-56W 62M
Mar 07, 2021 - 02:53 AM EST / 2021.03.07 0753 UTC
Wind: Calm:0
Visibility: 10 mile(s):0
Sky conditions: clear
Pressure (altimeter): 30.36 in. Hg (1028 hPa)
ob: KPBF 070753Z AUTO 00000KT 10SM CLR A3036 RMK AO2 SLPNO
cycle: 8

Station Type Date Time Source
KPBF TAF 2021/03/07 06:34 UTC NOAA

TAF KPBF 070531Z 0706/0806 VRB03KT P6SM SKC
FM071600 14007KT P6SM SCT250

Example: see airport list